Time;durP1;ratioP1;P1;durP2;ratioP2;P2;SDS_P1;SDS_P2;PMS_P1;PMS_P2;Temp;Humidity;BMP_temperature;BMP_pressure;BME280_temperature;BME280_humidity;BME280_pressure;Samples;Min_cycle;Max_cycle;Signal;HPM_P1;HPM_P2
2023/09/07 00:00:36;;;;;;;3.55;3.17;;;;;;;;;;5028423;28;21040;-72
2023/09/07 00:03:04;;;;;;;3.33;3.10;;;;;;;;;;5029695;28;20962;-72
2023/09/07 00:05:31;;;;;;;5.05;4.07;;;;;;;;;;5028705;28;20506;-72
2023/09/07 00:07:59;;;;;;;26.25;24.35;;;;;;;;;;5046875;28;20427;-72
2023/09/07 00:10:35;;;;;;;93.30;86.68;;;;;;;;;;5041024;28;20524;-72
2023/09/07 00:13:05;;;;;;;5.63;5.18;;;;;;;;;;5028278;28;20523;-72
2023/09/07 00:15:36;;;;;;;34.83;32.38;;;;;;;;;;5034108;28;20431;-73
2023/09/07 00:18:03;;;;;;;255.27;234.02;;;;;;;;;;5031269;28;20455;-72
2023/09/07 00:20:31;;;;;;;145.75;133.77;;;;;;;;;;5024439;28;21076;-72
2023/09/07 00:23:03;;;;;;;233.43;213.98;;;;;;;;;;5027147;28;20915;-71
2023/09/07 00:25:30;;;;;;;46.47;42.80;;;;;;;;;;5045318;28;20439;-72
2023/09/07 00:27:57;;;;;;;3.73;3.43;;;;;;;;;;5031800;28;20428;-72
2023/09/07 00:30:24;;;;;;;3.83;3.50;;;;;;;;;;5037146;28;20440;-72
2023/09/07 00:32:53;;;;;;;4.43;4.00;;;;;;;;;;5031031;28;20444;-72
2023/09/07 00:35:20;;;;;;;6.10;4.20;;;;;;;;;;5052256;28;20932;-72
2023/09/07 00:37:47;;;;;;;9.25;8.15;;;;;;;;;;5031718;28;20434;-72
2023/09/07 00:40:14;;;;;;;13.00;11.70;;;;;;;;;;5033048;28;20526;-72
2023/09/07 00:42:41;;;;;;;9.90;8.90;;;;;;;;;;5039027;28;20433;-72
2023/09/07 00:45:09;;;;;;;4.20;3.70;;;;;;;;;;5040107;28;20433;-73
2023/09/07 00:47:38;;;;;;;5.22;4.82;;;;;;;;;;5033309;28;20485;-72
2023/09/07 00:50:06;;;;;;;6.13;5.53;;;;;;;;;;5031048;28;20586;-72
2023/09/07 00:52:34;;;;;;;6.90;6.40;;;;;;;;;;5032051;28;20436;-72
2023/09/07 00:55:03;;;;;;;590.03;531.05;;;;;;;;;;5023772;28;20525;-72
2023/09/07 00:57:31;;;;;;;251.18;230.05;;;;;;;;;;5030264;28;20529;-72
2023/09/07 00:59:58;;;;;;;447.85;404.67;;;;;;;;;;5020827;28;21222;-72
2023/09/07 01:02:25;;;;;;;707.25;604.13;;;;;;;;;;5034685;28;20502;-72
2023/09/07 01:04:53;;;;;;;786.13;615.83;;;;;;;;;;5023179;28;20440;-72
2023/09/07 01:07:31;;;;;;;5.60;3.47;;;;;;;;;;5033509;28;20456;-72
2023/09/07 01:10:00;;;;;;;4.53;4.13;;;;;;;;;;5028820;28;20947;-72
2023/09/07 01:12:31;;;;;;;382.02;345.27;;;;;;;;;;5035788;28;20421;-72
2023/09/07 01:14:58;;;;;;;615.03;551.90;;;;;;;;;;5037882;28;20430;-72
2023/09/07 01:17:26;;;;;;;470.00;422.27;;;;;;;;;;5029771;28;20423;-73
2023/09/07 01:20:05;;;;;;;648.33;585.95;;;;;;;;;;5048520;28;20496;-72
2023/09/07 01:22:33;;;;;;;452.85;411.52;;;;;;;;;;5030034;28;20433;-72
2023/09/07 01:25:04;;;;;;;492.17;445.67;;;;;;;;;;5030555;28;20476;-72
2023/09/07 01:27:35;;;;;;;128.43;119.40;;;;;;;;;;5033467;28;20426;-72
2023/09/07 01:30:03;;;;;;;41.45;38.55;;;;;;;;;;5038965;28;20518;-72
2023/09/07 01:32:30;;;;;;;11.07;10.27;;;;;;;;;;5048345;28;20426;-71
2023/09/07 01:34:58;;;;;;;4.50;4.10;;;;;;;;;;5024367;28;20447;-71
2023/09/07 01:37:25;;;;;;;4.20;3.65;;;;;;;;;;5025784;28;21024;-71
2023/09/07 01:39:52;;;;;;;3.63;3.33;;;;;;;;;;5032960;28;20991;-71
2023/09/07 01:42:21;;;;;;;3.77;3.40;;;;;;;;;;5034022;28;20559;-71
2023/09/07 01:44:49;;;;;;;4.60;3.63;;;;;;;;;;5034854;28;20429;-71
2023/09/07 01:47:16;;;;;;;4.22;3.75;;;;;;;;;;5036377;28;21050;-72
2023/09/07 01:49:44;;;;;;;4.00;3.15;;;;;;;;;;5034036;28;20466;-71
2023/09/07 01:52:11;;;;;;;3.67;3.40;;;;;;;;;;5029351;28;20450;-70
2023/09/07 01:54:38;;;;;;;5.22;3.50;;;;;;;;;;5035860;28;20513;-71
2023/09/07 01:57:05;;;;;;;18.17;16.70;;;;;;;;;;5050794;28;20443;-71
2023/09/07 01:59:32;;;;;;;302.63;273.58;;;;;;;;;;5029803;28;20431;-71
2023/09/07 02:02:00;;;;;;;481.80;436.58;;;;;;;;;;5039127;28;20505;-71
2023/09/07 02:04:29;;;;;;;641.35;579.85;;;;;;;;;;5028475;28;20470;-71
2023/09/07 02:06:56;;;;;;;618.17;559.58;;;;;;;;;;5033058;28;20474;-71
2023/09/07 02:09:23;;;;;;;614.03;558.30;;;;;;;;;;5027157;28;20436;-71
2023/09/07 02:11:51;;;;;;;75.75;70.22;;;;;;;;;;5041762;28;20874;-72
2023/09/07 02:14:18;;;;;;;60.78;55.45;;;;;;;;;;5047248;28;20458;-72
2023/09/07 02:16:45;;;;;;;655.72;587.88;;;;;;;;;;5034041;28;20987;-71
2023/09/07 02:19:12;;;;;;;841.20;631.85;;;;;;;;;;5029492;28;20790;-71
2023/09/07 02:21:40;;;;;;;786.63;630.20;;;;;;;;;;5028947;28;20451;-71
2023/09/07 02:24:07;;;;;;;835.10;642.63;;;;;;;;;;5038179;28;20967;-70
2023/09/07 02:26:43;;;;;;;775.58;622.85;;;;;;;;;;5034386;28;20527;-71
2023/09/07 02:29:10;;;;;;;771.38;630.83;;;;;;;;;;5029979;28;20435;-71
2023/09/07 02:31:51;;;;;;;815.65;638.90;;;;;;;;;;5049224;28;20443;-71
2023/09/07 02:34:18;;;;;;;825.42;641.22;;;;;;;;;;5038276;28;21091;-71
2023/09/07 02:36:46;;;;;;;817.22;638.67;;;;;;;;;;5026407;28;20885;-72
2023/09/07 02:39:15;;;;;;;819.85;632.80;;;;;;;;;;5028139;28;20471;-70
2023/09/07 02:41:43;;;;;;;799.85;571.60;;;;;;;;;;5038847;28;20429;-71
2023/09/07 02:44:13;;;;;;;798.03;563.83;;;;;;;;;;5040849;28;20421;-71
2023/09/07 02:46:40;;;;;;;786.47;551.38;;;;;;;;;;5034601;28;20893;-71
2023/09/07 02:49:07;;;;;;;789.42;590.10;;;;;;;;;;5034795;28;20432;-71
2023/09/07 02:51:34;;;;;;;785.00;619.83;;;;;;;;;;5030095;28;20789;-72
2023/09/07 02:54:05;;;;;;;780.63;593.28;;;;;;;;;;5027242;28;21190;-72
2023/09/07 02:56:32;;;;;;;781.07;571.03;;;;;;;;;;5031301;28;20427;-73
2023/09/07 02:59:02;;;;;;;785.55;585.22;;;;;;;;;;5020955;28;20530;-71
2023/09/07 03:01:32;;;;;;;785.77;593.07;;;;;;;;;;5031076;28;20518;-71
2023/09/07 03:04:00;;;;;;;776.13;562.72;;;;;;;;;;5023983;28;20434;-72
2023/09/07 03:06:27;;;;;;;778.08;595.88;;;;;;;;;;5031655;28;20799;-71
2023/09/07 03:08:54;;;;;;;835.65;592.08;;;;;;;;;;5028101;28;20431;-71
2023/09/07 03:11:21;;;;;;;278.95;248.45;;;;;;;;;;5036482;28;20522;-71
2023/09/07 03:13:48;;;;;;;643.08;583.05;;;;;;;;;;5019513;28;20435;-72
2023/09/07 03:16:15;;;;;;;182.32;166.80;;;;;;;;;;5027046;28;20493;-71
2023/09/07 03:18:43;;;;;;;724.40;658.08;;;;;;;;;;5035187;28;20447;-72
2023/09/07 03:21:10;;;;;;;777.78;523.28;;;;;;;;;;5034876;28;20516;-72
2023/09/07 03:23:44;;;;;;;757.60;491.95;;;;;;;;;;5029442;28;20506;-71
2023/09/07 03:26:17;;;;;;;781.00;561.03;;;;;;;;;;5026293;28;20426;-71
2023/09/07 03:28:44;;;;;;;799.55;574.33;;;;;;;;;;5032479;28;20427;-71
2023/09/07 03:31:14;;;;;;;782.63;538.38;;;;;;;;;;5026238;28;21147;-72
2023/09/07 03:33:41;;;;;;;769.53;561.08;;;;;;;;;;5025140;28;20434;-72
2023/09/07 03:36:10;;;;;;;781.97;528.42;;;;;;;;;;5018115;28;20582;-71
2023/09/07 03:38:37;;;;;;;766.17;524.95;;;;;;;;;;5022556;28;20508;-71
2023/09/07 03:41:07;;;;;;;801.03;615.67;;;;;;;;;;5020681;28;20442;-72
2023/09/07 03:43:34;;;;;;;781.58;592.30;;;;;;;;;;5022481;28;20431;-72
2023/09/07 03:46:02;;;;;;;779.90;607.97;;;;;;;;;;5025826;28;20884;-71
2023/09/07 03:48:29;;;;;;;771.28;628.05;;;;;;;;;;5022962;28;20450;-72
2023/09/07 03:50:57;;;;;;;854.50;647.85;;;;;;;;;;5024466;28;20458;-71
2023/09/07 03:53:24;;;;;;;841.50;660.10;;;;;;;;;;5020857;28;20940;-71
2023/09/07 03:55:51;;;;;;;820.67;662.63;;;;;;;;;;5024976;28;21081;-71
2023/09/07 03:58:18;;;;;;;822.30;656.00;;;;;;;;;;5027223;28;20489;-71
2023/09/07 04:00:45;;;;;;;811.92;654.60;;;;;;;;;;5025424;28;20909;-71
2023/09/07 04:03:15;;;;;;;810.77;665.77;;;;;;;;;;5043469;28;20437;-72
2023/09/07 04:05:43;;;;;;;802.65;674.97;;;;;;;;;;5032615;28;20425;-71
2023/09/07 04:08:17;;;;;;;795.88;680.75;;;;;;;;;;5030781;28;20425;-71
2023/09/07 04:10:44;;;;;;;797.58;682.22;;;;;;;;;;5026766;28;20819;-73
2023/09/07 04:13:11;;;;;;;785.93;677.73;;;;;;;;;;5032456;28;20437;-72
2023/09/07 04:15:45;;;;;;;783.00;674.35;;;;;;;;;;5028320;28;20837;-72
2023/09/07 04:18:15;;;;;;;806.60;678.70;;;;;;;;;;5026320;28;20500;-71
2023/09/07 04:20:42;;;;;;;800.55;680.20;;;;;;;;;;5028655;28;20528;-72
2023/09/07 04:23:09;;;;;;;804.78;684.70;;;;;;;;;;5028705;28;20439;-72
2023/09/07 04:25:39;;;;;;;792.55;680.35;;;;;;;;;;5030887;28;20837;-71
2023/09/07 04:28:06;;;;;;;814.13;650.17;;;;;;;;;;5032342;28;20437;-71
2023/09/07 04:30:37;;;;;;;829.05;633.83;;;;;;;;;;5024144;28;20514;-71
2023/09/07 04:33:04;;;;;;;841.05;649.78;;;;;;;;;;5034495;28;20502;-71
2023/09/07 04:35:33;;;;;;;833.93;666.63;;;;;;;;;;5026109;28;20483;-72
2023/09/07 04:38:00;;;;;;;3.40;3.07;;;;;;;;;;5028763;28;20438;-71
2023/09/07 04:40:27;;;;;;;3.53;3.00;;;;;;;;;;5034563;28;20570;-71
2023/09/07 04:42:55;;;;;;;3.72;2.85;;;;;;;;;;5031502;28;20988;-70
2023/09/07 04:45:22;;;;;;;19.42;14.55;;;;;;;;;;5032127;28;20484;-71
2023/09/07 04:47:50;;;;;;;42.38;38.42;;;;;;;;;;5028145;28;20438;-71
2023/09/07 04:50:17;;;;;;;3.40;3.10;;;;;;;;;;5026247;28;20504;-70
2023/09/07 04:52:48;;;;;;;3.50;3.10;;;;;;;;;;5033523;28;20457;-71
2023/09/07 04:55:17;;;;;;;3.10;2.90;;;;;;;;;;5039208;28;20446;-71
2023/09/07 04:57:44;;;;;;;3.20;2.90;;;;;;;;;;5031806;28;20468;-73
2023/09/07 05:00:14;;;;;;;3.88;3.00;;;;;;;;;;5031109;28;20439;-72
2023/09/07 05:02:43;;;;;;;5.28;3.05;;;;;;;;;;5025031;28;20431;-72
2023/09/07 05:05:10;;;;;;;174.27;159.77;;;;;;;;;;5031191;28;20434;-71
2023/09/07 05:07:37;;;;;;;858.10;629.72;;;;;;;;;;5033753;28;20438;-72
2023/09/07 05:10:06;;;;;;;829.85;620.80;;;;;;;;;;5027542;28;20742;-72
2023/09/07 05:12:33;;;;;;;826.47;635.83;;;;;;;;;;5018434;28;20435;-72
2023/09/07 05:15:01;;;;;;;872.22;635.10;;;;;;;;;;5016859;28;20936;-71
2023/09/07 05:17:28;;;;;;;846.15;576.45;;;;;;;;;;5026896;28;20951;-72
2023/09/07 05:19:55;;;;;;;846.50;618.35;;;;;;;;;;5028349;28;20441;-72
2023/09/07 05:22:22;;;;;;;847.47;631.85;;;;;;;;;;5025358;28;20426;-71
2023/09/07 05:24:50;;;;;;;850.88;647.28;;;;;;;;;;5026405;28;20470;-72
2023/09/07 05:27:17;;;;;;;843.27;651.80;;;;;;;;;;5029594;28;20485;-72
2023/09/07 05:29:44;;;;;;;841.10;644.70;;;;;;;;;;5026365;28;20438;-72
2023/09/07 05:32:11;;;;;;;838.00;651.63;;;;;;;;;;5035813;28;21237;-71
2023/09/07 05:34:39;;;;;;;852.67;666.47;;;;;;;;;;5029898;28;20930;-69
2023/09/07 05:37:06;;;;;;;843.03;668.35;;;;;;;;;;5024118;28;20504;-69
2023/09/07 05:39:33;;;;;;;834.70;651.40;;;;;;;;;;5022496;28;20439;-69
2023/09/07 05:42:00;;;;;;;814.87;571.20;;;;;;;;;;5023837;28;20442;-70
2023/09/07 05:44:27;;;;;;;805.40;558.75;;;;;;;;;;5033804;28;20423;-69
2023/09/07 05:46:54;;;;;;;814.97;581.20;;;;;;;;;;5031243;28;20521;-70
2023/09/07 05:49:22;;;;;;;817.40;620.25;;;;;;;;;;5034220;28;20423;-69
2023/09/07 05:51:49;;;;;;;818.50;634.97;;;;;;;;;;5025450;28;20450;-70
2023/09/07 05:54:16;;;;;;;824.88;645.40;;;;;;;;;;5032538;28;20439;-69
2023/09/07 05:56:43;;;;;;;823.47;643.40;;;;;;;;;;5023460;28;20956;-69
2023/09/07 05:59:11;;;;;;;798.42;561.03;;;;;;;;;;5024087;28;20435;-69
2023/09/07 06:01:39;;;;;;;816.05;575.00;;;;;;;;;;5025639;28;20463;-70
2023/09/07 06:04:09;;;;;;;797.70;587.47;;;;;;;;;;5027292;28;20501;-69
2023/09/07 06:06:37;;;;;;;838.53;593.08;;;;;;;;;;5027583;28;20903;-70
2023/09/07 06:09:04;;;;;;;838.05;631.40;;;;;;;;;;5011223;28;20433;-72
2023/09/07 06:11:32;;;;;;;840.40;626.27;;;;;;;;;;5011004;28;20442;-70
2023/09/07 06:13:59;;;;;;;852.58;662.95;;;;;;;;;;5010780;28;20895;-69
2023/09/07 06:16:26;;;;;;;863.67;674.15;;;;;;;;;;5006576;28;20445;-71
2023/09/07 06:18:53;;;;;;;853.37;668.73;;;;;;;;;;5021722;28;21320;-70
2023/09/07 06:21:23;;;;;;;869.97;677.40;;;;;;;;;;5021571;28;20438;-71
2023/09/07 06:23:50;;;;;;;865.38;675.08;;;;;;;;;;5025468;28;20432;-70
2023/09/07 06:26:19;;;;;;;984.13;785.22;;;;;;;;;;5024932;28;20869;-70
2023/09/07 06:28:51;;;;;;;957.03;757.40;;;;;;;;;;5033768;28;20442;-70
2023/09/07 06:31:18;;;;;;;935.88;744.10;;;;;;;;;;5023580;28;20457;-71
2023/09/07 06:33:46;;;;;;;996.97;826.35;;;;;;;;;;5015769;28;20465;-70
2023/09/07 06:36:13;;;;;;;977.83;816.90;;;;;;;;;;5021726;28;20432;-71
2023/09/07 06:38:40;;;;;;;1025.10;923.80;;;;;;;;;;5015997;28;20943;-70
2023/09/07 06:41:09;;;;;;;1015.42;845.72;;;;;;;;;;5024063;28;20514;-70
2023/09/07 06:43:36;;;;;;;1013.03;865.38;;;;;;;;;;5024957;28;20437;-70
2023/09/07 06:46:07;;;;;;;1005.05;860.53;;;;;;;;;;5016277;28;20837;-70
2023/09/07 06:48:35;;;;;;;1008.38;861.33;;;;;;;;;;5005668;28;20785;-71
2023/09/07 06:51:06;;;;;;;27.95;25.75;;;;;;;;;;5024736;28;20919;-71
2023/09/07 06:53:33;;;;;;;37.97;35.28;;;;;;;;;;5024789;28;20588;-71
2023/09/07 06:56:20;;;;;;;748.15;683.38;;;;;;;;;;5022504;28;20420;-72
2023/09/07 06:58:47;;;;;;;1092.82;974.00;;;;;;;;;;5035785;28;20481;-71
2023/09/07 07:01:15;;;;;;;1064.47;951.00;;;;;;;;;;5028139;28;20958;-71
2023/09/07 07:03:42;;;;;;;1001.97;896.92;;;;;;;;;;5028026;28;20438;-71
2023/09/07 07:06:09;;;;;;;321.98;293.10;;;;;;;;;;5028563;28;20516;-70
2023/09/07 07:08:40;;;;;;;188.18;170.73;;;;;;;;;;5026297;28;22465;-73
2023/09/07 07:11:07;;;;;;;7.53;7.10;;;;;;;;;;5028144;28;20439;-71
2023/09/07 07:13:36;;;;;;;790.38;721.67;;;;;;;;;;5029646;28;20848;-71
2023/09/07 07:16:04;;;;;;;982.92;888.25;;;;;;;;;;5029959;28;20458;-70
2023/09/07 07:18:35;;;;;;;35.70;33.08;;;;;;;;;;5022658;28;21024;-71
2023/09/07 07:21:02;;;;;;;26.90;24.65;;;;;;;;;;5021779;28;20608;-71
2023/09/07 07:23:29;;;;;;;18.15;16.83;;;;;;;;;;5023384;28;21127;-72
2023/09/07 07:25:59;;;;;;;455.53;415.00;;;;;;;;;;5043632;28;20431;-71
2023/09/07 07:28:27;;;;;;;788.70;719.70;;;;;;;;;;5023812;28;21006;-72
2023/09/07 07:30:54;;;;;;;976.08;874.28;;;;;;;;;;5020097;28;20825;-70
2023/09/07 07:33:21;;;;;;;145.48;134.15;;;;;;;;;;5053557;28;20587;-71
2023/09/07 07:35:49;;;;;;;544.72;493.40;;;;;;;;;;5022496;28;20461;-72
2023/09/07 07:38:16;;;;;;;522.88;474.55;;;;;;;;;;5019734;28;20805;-72
2023/09/07 07:40:46;;;;;;;950.37;849.90;;;;;;;;;;5022915;28;20442;-71
2023/09/07 07:43:13;;;;;;;980.97;831.53;;;;;;;;;;5023732;28;20431;-70
2023/09/07 07:45:43;;;;;;;991.50;823.38;;;;;;;;;;5016784;28;20431;-71
2023/09/07 07:48:10;;;;;;;998.08;833.15;;;;;;;;;;5026910;28;20435;-71
2023/09/07 07:50:41;;;;;;;983.65;821.58;;;;;;;;;;5024464;28;20430;-71
2023/09/07 07:53:09;;;;;;;976.65;811.38;;;;;;;;;;5025456;28;21036;-70
2023/09/07 07:55:38;;;;;;;975.75;810.05;;;;;;;;;;5028984;28;20999;-71
2023/09/07 07:58:07;;;;;;;978.35;813.15;;;;;;;;;;5027344;28;20956;-72
2023/09/07 08:00:38;;;;;;;815.70;725.63;;;;;;;;;;5031650;28;20450;-70
2023/09/07 08:03:06;;;;;;;928.93;833.67;;;;;;;;;;5026508;28;20446;-71
2023/09/07 08:05:34;;;;;;;3.25;2.55;;;;;;;;;;5027495;28;20435;-71
2023/09/07 08:08:02;;;;;;;2.80;2.50;;;;;;;;;;5024412;28;20512;-71
2023/09/07 08:10:30;;;;;;;379.65;347.75;;;;;;;;;;5026567;28;20515;-71
2023/09/07 08:12:58;;;;;;;3.55;3.25;;;;;;;;;;5024587;28;20446;-71
2023/09/07 08:15:26;;;;;;;23.10;21.27;;;;;;;;;;5028269;28;20875;-70
2023/09/07 08:17:53;;;;;;;82.75;76.80;;;;;;;;;;5025748;28;20466;-72
2023/09/07 08:20:20;;;;;;;587.83;537.40;;;;;;;;;;5024697;28;20489;-70
2023/09/07 08:22:48;;;;;;;1073.38;973.00;;;;;;;;;;5030604;28;20432;-72
2023/09/07 08:25:15;;;;;;;820.85;754.33;;;;;;;;;;5026773;28;20893;-70
2023/09/07 08:27:44;;;;;;;269.98;248.90;;;;;;;;;;5023071;28;20429;-71
2023/09/07 08:30:12;;;;;;;919.17;841.33;;;;;;;;;;5024250;28;20519;-72
2023/09/07 08:32:39;;;;;;;721.42;660.05;;;;;;;;;;5021986;28;20434;-71
2023/09/07 08:35:09;;;;;;;285.52;260.95;;;;;;;;;;5026460;28;20435;-71
2023/09/07 08:37:36;;;;;;;672.13;611.15;;;;;;;;;;5024816;28;20430;-72
2023/09/07 08:40:04;;;;;;;56.83;51.67;;;;;;;;;;5011133;28;20543;-71
2023/09/07 08:42:31;;;;;;;224.40;203.73;;;;;;;;;;5019457;28;21003;-72
2023/09/07 08:45:01;;;;;;;575.92;524.88;;;;;;;;;;5018913;28;20431;-73
2023/09/07 08:47:30;;;;;;;155.77;142.50;;;;;;;;;;5015802;28;20438;-71
2023/09/07 08:49:58;;;;;;;2.75;2.60;;;;;;;;;;5022439;28;20909;-70
2023/09/07 08:52:25;;;;;;;15.83;11.97;;;;;;;;;;5030785;28;20516;-69
2023/09/07 08:54:52;;;;;;;4.00;2.90;;;;;;;;;;5028631;28;20438;-71
2023/09/07 08:57:22;;;;;;;2.72;2.53;;;;;;;;;;5023282;28;20465;-72
2023/09/07 08:59:49;;;;;;;368.30;336.00;;;;;;;;;;5024348;28;20514;-71
2023/09/07 09:02:17;;;;;;;26.65;24.77;;;;;;;;;;5024809;28;21447;-71
2023/09/07 09:04:44;;;;;;;77.03;70.65;;;;;;;;;;5030861;28;20795;-72
2023/09/07 09:07:17;;;;;;;1017.83;924.92;;;;;;;;;;5028445;28;20805;-72
2023/09/07 09:09:45;;;;;;;895.60;821.97;;;;;;;;;;5030201;28;21992;-71
2023/09/07 09:12:12;;;;;;;730.67;669.20;;;;;;;;;;5032892;28;20430;-70
2023/09/07 09:14:43;;;;;;;515.00;470.20;;;;;;;;;;5041563;28;20560;-73
2023/09/07 09:17:16;;;;;;;147.52;134.57;;;;;;;;;;5024190;28;20468;-70
2023/09/07 09:19:44;;;;;;;9.07;8.27;;;;;;;;;;5032374;28;20435;-72
2023/09/07 09:22:12;;;;;;;2.50;2.40;;;;;;;;;;5024835;28;20450;-70
2023/09/07 09:24:39;;;;;;;846.70;771.55;;;;;;;;;;5029670;28;20430;-69
2023/09/07 09:27:06;;;;;;;1103.47;999.90;;;;;;;;;;5027474;28;20430;-70
2023/09/07 09:29:34;;;;;;;1112.80;999.90;;;;;;;;;;5020318;28;20439;-70
2023/09/07 09:32:04;;;;;;;819.42;748.05;;;;;;;;;;5028247;28;20474;-71
2023/09/07 09:34:35;;;;;;;750.88;687.40;;;;;;;;;;5025403;28;20435;-70
2023/09/07 09:37:11;;;;;;;1011.65;913.03;;;;;;;;;;5032041;28;20464;-70
2023/09/07 09:39:38;;;;;;;275.95;252.52;;;;;;;;;;5025615;28;20906;-70
2023/09/07 09:42:08;;;;;;;1010.83;922.70;;;;;;;;;;5042259;28;20512;-71
2023/09/07 09:44:36;;;;;;;422.90;387.73;;;;;;;;;;5057767;28;20430;-69
2023/09/07 09:47:04;;;;;;;790.10;720.30;;;;;;;;;;5029527;28;20462;-70
2023/09/07 09:49:31;;;;;;;519.20;475.35;;;;;;;;;;5026766;28;20427;-73
2023/09/07 09:51:58;;;;;;;1142.53;999.90;;;;;;;;;;5027416;28;20435;-72
2023/09/07 09:54:26;;;;;;;905.75;824.75;;;;;;;;;;5026799;28;20434;-69
2023/09/07 09:56:53;;;;;;;2.80;2.50;;;;;;;;;;5020725;28;20443;-71
2023/09/07 09:59:21;;;;;;;277.63;253.00;;;;;;;;;;5025948;28;20435;-70
2023/09/07 10:01:50;;;;;;;4.23;2.80;;;;;;;;;;5026968;28;20435;-70
2023/09/07 10:04:18;;;;;;;4.38;2.70;;;;;;;;;;5026588;28;20502;-71
2023/09/07 10:06:51;;;;;;;575.92;523.78;;;;;;;;;;5025687;28;20555;-70
2023/09/07 10:09:21;;;;;;;487.17;444.67;;;;;;;;;;5028448;28;20454;-71
2023/09/07 10:11:53;;;;;;;979.83;894.60;;;;;;;;;;5029052;28;20470;-73
2023/09/07 10:14:26;;;;;;;2.97;2.75;;;;;;;;;;5021509;28;20432;-72
2023/09/07 10:16:59;;;;;;;191.52;175.27;;;;;;;;;;5026251;28;20813;-71
2023/09/07 10:19:26;;;;;;;3.35;2.60;;;;;;;;;;5027397;28;20427;-71
2023/09/07 10:21:54;;;;;;;6.63;6.10;;;;;;;;;;5028302;28;20525;-73
2023/09/07 10:24:25;;;;;;;3.45;3.25;;;;;;;;;;5027529;28;20442;-72
2023/09/07 10:27:04;;;;;;;107.82;96.28;;;;;;;;;;5022764;28;20525;-70
2023/09/07 10:29:41;;;;;;;274.50;250.50;;;;;;;;;;5027368;28;20435;-72
2023/09/07 10:32:12;;;;;;;3.10;2.90;;;;;;;;;;5026879;28;20952;-71
2023/09/07 10:34:45;;;;;;;2.88;2.50;;;;;;;;;;5022834;28;20458;-70
2023/09/07 10:37:14;;;;;;;2.67;2.45;;;;;;;;;;5033297;28;20448;-71
2023/09/07 10:39:45;;;;;;;2.60;2.40;;;;;;;;;;5027300;28;20510;-73
2023/09/07 10:42:23;;;;;;;9.30;8.50;;;;;;;;;;5032722;28;20502;-70
2023/09/07 10:44:51;;;;;;;2.75;2.55;;;;;;;;;;5022718;28;20449;-70
2023/09/07 10:47:18;;;;;;;2.60;2.47;;;;;;;;;;5029421;28;20431;-72
2023/09/07 10:49:51;;;;;;;27.80;25.70;;;;;;;;;;5026725;28;20439;-72
2023/09/07 10:52:19;;;;;;;39.53;36.50;;;;;;;;;;5017817;28;20432;-71
2023/09/07 10:54:56;;;;;;;121.10;109.40;;;;;;;;;;5020910;28;20524;-71
2023/09/07 10:57:23;;;;;;;2.83;2.63;;;;;;;;;;5024920;28;20431;-71
2023/09/07 10:59:54;;;;;;;4.57;2.50;;;;;;;;;;5023845;28;20467;-72
2023/09/07 11:02:21;;;;;;;126.30;114.18;;;;;;;;;;5028982;28;20435;-71
2023/09/07 11:04:49;;;;;;;9.37;7.10;;;;;;;;;;5030732;28;20435;-72
2023/09/07 11:07:17;;;;;;;2.63;2.53;;;;;;;;;;5026999;28;20430;-71
2023/09/07 11:09:47;;;;;;;279.30;255.02;;;;;;;;;;5018821;28;20767;-71
2023/09/07 11:12:17;;;;;;;31.67;28.50;;;;;;;;;;5024718;28;20423;-72
2023/09/07 11:14:44;;;;;;;21.33;19.48;;;;;;;;;;5024151;28;20438;-71
2023/09/07 11:17:14;;;;;;;3.15;2.80;;;;;;;;;;5025210;28;20436;-72
2023/09/07 11:19:41;;;;;;;3.50;2.50;;;;;;;;;;5026299;28;20801;-72
2023/09/07 11:22:12;;;;;;;2.85;2.50;;;;;;;;;;5026976;28;20771;-71
2023/09/07 11:24:39;;;;;;;3.38;2.88;;;;;;;;;;5033131;28;20518;-71
2023/09/07 11:27:06;;;;;;;3.05;2.78;;;;;;;;;;5030900;28;20435;-72
2023/09/07 11:29:33;;;;;;;3.10;2.80;;;;;;;;;;5028202;28;20427;-72
2023/09/07 11:32:10;;;;;;;3.80;3.30;;;;;;;;;;5028118;28;20430;-72
2023/09/07 11:34:55;;;;;;;3.28;2.92;;;;;;;;;;5025579;28;20514;-71
2023/09/07 11:37:26;;;;;;;2.97;2.78;;;;;;;;;;5030887;28;20485;-71
2023/09/07 11:39:58;;;;;;;3.03;2.83;;;;;;;;;;5029761;28;20859;-73
2023/09/07 11:42:28;;;;;;;2.65;2.45;;;;;;;;;;5023287;28;20813;-72
2023/09/07 11:45:01;;;;;;;3.10;2.80;;;;;;;;;;5023255;28;20542;-72
2023/09/07 11:47:28;;;;;;;2.70;2.50;;;;;;;;;;5026657;28;20563;-70
2023/09/07 11:49:55;;;;;;;2.90;2.70;;;;;;;;;;5026148;28;20433;-71
2023/09/07 11:52:23;;;;;;;3.40;2.53;;;;;;;;;;5026431;28;20461;-71
2023/09/07 11:54:50;;;;;;;2.58;2.33;;;;;;;;;;5025166;28;20423;-72
2023/09/07 11:57:18;;;;;;;2.88;2.67;;;;;;;;;;5032362;28;20453;-71
2023/09/07 11:59:46;;;;;;;2.88;2.60;;;;;;;;;;5045540;28;20446;-73
2023/09/07 12:02:26;;;;;;;3.00;2.80;;;;;;;;;;5041006;28;20442;-70
2023/09/07 12:04:54;;;;;;;2.90;2.70;;;;;;;;;;5024283;28;20876;-71
2023/09/07 12:07:24;;;;;;;3.00;2.65;;;;;;;;;;5026262;28;20418;-74
2023/09/07 12:09:57;;;;;;;54.42;47.85;;;;;;;;;;5028067;28;20433;-72
2023/09/07 12:12:24;;;;;;;146.70;133.18;;;;;;;;;;5026188;28;20457;-71
2023/09/07 12:14:51;;;;;;;3.17;2.40;;;;;;;;;;5024632;28;21281;-73
2023/09/07 12:17:19;;;;;;;2.65;2.45;;;;;;;;;;5021734;28;20964;-72
2023/09/07 12:19:47;;;;;;;3.10;2.80;;;;;;;;;;5014708;28;20930;-72
2023/09/07 12:22:14;;;;;;;3.85;2.47;;;;;;;;;;5015402;28;20468;-71
2023/09/07 12:24:44;;;;;;;3.60;2.85;;;;;;;;;;5032924;28;20454;-72
2023/09/07 12:27:28;;;;;;;3.00;2.90;;;;;;;;;;5015787;28;20439;-71
2023/09/07 12:30:12;;;;;;;2.58;2.42;;;;;;;;;;5026024;28;20520;-72
2023/09/07 12:32:40;;;;;;;8.75;7.90;;;;;;;;;;5039363;28;20425;-71
2023/09/07 12:35:10;;;;;;;100.33;91.13;;;;;;;;;;5031323;28;20930;-72
2023/09/07 12:37:37;;;;;;;3.00;2.72;;;;;;;;;;5025073;28;21014;-72
2023/09/07 12:40:12;;;;;;;3.00;2.80;;;;;;;;;;5031216;28;20431;-72
2023/09/07 12:42:40;;;;;;;5.22;4.78;;;;;;;;;;5027952;28;20470;-71
2023/09/07 12:45:12;;;;;;;4.63;4.13;;;;;;;;;;5026251;28;20429;-73
2023/09/07 12:47:39;;;;;;;3.92;2.63;;;;;;;;;;5033271;28;20540;-72
2023/09/07 12:50:07;;;;;;;2.83;2.38;;;;;;;;;;5020689;28;20965;-73
2023/09/07 12:52:38;;;;;;;2.55;2.35;;;;;;;;;;5022240;28;20423;-72
2023/09/07 12:55:06;;;;;;;3.47;2.50;;;;;;;;;;5026795;28;20431;-72
2023/09/07 12:57:35;;;;;;;13.63;11.15;;;;;;;;;;5028041;28;20434;-73
2023/09/07 13:00:05;;;;;;;420.17;383.33;;;;;;;;;;5025100;28;20933;-74
2023/09/07 13:02:33;;;;;;;876.25;798.50;;;;;;;;;;5025008;28;20439;-73
2023/09/07 13:05:00;;;;;;;98.10;89.30;;;;;;;;;;5036698;28;20461;-73
2023/09/07 13:07:27;;;;;;;3.50;3.20;;;;;;;;;;5026390;28;20431;-72
2023/09/07 13:09:55;;;;;;;3.97;3.67;;;;;;;;;;5023813;28;20542;-72
2023/09/07 13:12:22;;;;;;;2.93;2.70;;;;;;;;;;5034476;28;20958;-73
2023/09/07 13:14:49;;;;;;;2.55;2.33;;;;;;;;;;5028005;28;20516;-75
2023/09/07 13:17:16;;;;;;;2.70;2.60;;;;;;;;;;5031211;28;20485;-73
2023/09/07 13:19:44;;;;;;;3.72;2.45;;;;;;;;;;5035597;28;20443;-72
2023/09/07 13:22:11;;;;;;;3.03;2.88;;;;;;;;;;5024000;28;20426;-72
2023/09/07 13:24:38;;;;;;;2.73;2.53;;;;;;;;;;5024606;28;20442;-72
2023/09/07 13:27:06;;;;;;;2.67;2.47;;;;;;;;;;5028101;28;20830;-73
2023/09/07 13:29:33;;;;;;;2.50;2.40;;;;;;;;;;5027774;28;20821;-72
2023/09/07 13:32:00;;;;;;;3.60;2.42;;;;;;;;;;5027083;28;20435;-73
2023/09/07 13:34:28;;;;;;;3.93;2.60;;;;;;;;;;5038086;28;20462;-72
2023/09/07 13:36:55;;;;;;;2.80;2.60;;;;;;;;;;5029124;28;21224;-72
2023/09/07 13:39:23;;;;;;;6.50;6.03;;;;;;;;;;5040164;28;20430;-73
2023/09/07 13:41:50;;;;;;;3.30;3.10;;;;;;;;;;5029008;28;20950;-75
2023/09/07 13:44:18;;;;;;;3.53;3.23;;;;;;;;;;5030542;28;20427;-75
2023/09/07 13:46:45;;;;;;;2.92;2.72;;;;;;;;;;5053990;28;20443;-76
2023/09/07 13:49:12;;;;;;;3.47;3.17;;;;;;;;;;5027218;28;20430;-77
2023/09/07 13:51:40;;;;;;;2.42;2.33;;;;;;;;;;5022203;28;20427;-75
2023/09/07 13:54:08;;;;;;;3.25;2.47;;;;;;;;;;5027824;28;20446;-74
2023/09/07 13:56:36;;;;;;;10.00;9.10;;;;;;;;;;5029011;28;20565;-76
2023/09/07 13:59:04;;;;;;;4.20;2.67;;;;;;;;;;5038844;28;20526;-74
2023/09/07 14:01:31;;;;;;;10.10;9.18;;;;;;;;;;5012267;28;20434;-76
2023/09/07 14:03:59;;;;;;;4.32;2.70;;;;;;;;;;5021985;28;20434;-74
2023/09/07 14:06:29;;;;;;;2.85;2.60;;;;;;;;;;5018457;28;20462;-75
2023/09/07 14:08:56;;;;;;;75.00;68.15;;;;;;;;;;5056855;28;20430;-78
2023/09/07 14:11:23;;;;;;;17.48;14.75;;;;;;;;;;5026871;28;20430;-76
2023/09/07 14:13:54;;;;;;;3.92;2.47;;;;;;;;;;5026351;28;20435;-74
2023/09/07 14:16:22;;;;;;;4.45;2.47;;;;;;;;;;5025148;28;20510;-78
2023/09/07 14:18:50;;;;;;;2.45;2.35;;;;;;;;;;5025539;28;20935;-73